createdAt,value
2018-09-09T00:01:34.195Z,14.00
2018-09-09T00:04:02.667Z,13.90
2018-09-09T00:06:31.115Z,13.90
2018-09-09T00:08:59.516Z,13.80
2018-09-09T00:11:28.674Z,13.80
2018-09-09T00:13:57.099Z,13.70
2018-09-09T00:16:25.596Z,13.70
2018-09-09T00:18:54.077Z,13.70
2018-09-09T00:21:22.521Z,13.70
2018-09-09T00:23:51.001Z,13.80
2018-09-09T00:26:19.448Z,13.80
2018-09-09T00:28:48.021Z,13.70
2018-09-09T00:31:16.451Z,13.80
2018-09-09T00:33:44.852Z,13.80
2018-09-09T00:36:13.411Z,13.80
2018-09-09T00:38:41.867Z,13.80
2018-09-09T00:41:10.379Z,13.80
2018-09-09T00:43:38.853Z,13.90
2018-09-09T00:46:07.338Z,13.90
2018-09-09T00:48:35.820Z,13.80
2018-09-09T00:51:09.755Z,13.70
2018-09-09T00:53:42.555Z,13.70
2018-09-09T00:56:11.016Z,13.70
2018-09-09T00:58:39.477Z,13.80
2018-09-09T01:01:16.933Z,13.70
2018-09-09T01:03:46.688Z,13.60
2018-09-09T01:06:15.271Z,13.60
2018-09-09T01:08:43.805Z,13.50
2018-09-09T01:11:12.253Z,13.40
2018-09-09T01:13:40.750Z,13.40
2018-09-09T01:16:09.499Z,13.40
2018-09-09T01:18:38.082Z,13.40
2018-09-09T01:21:06.560Z,13.40
2018-09-09T01:23:35.088Z,13.40
2018-09-09T01:26:03.552Z,13.40
2018-09-09T01:28:32.024Z,13.40
2018-09-09T01:31:00.514Z,13.40
2018-09-09T01:33:28.998Z,13.50
2018-09-09T01:35:57.494Z,13.50
2018-09-09T01:38:25.931Z,13.50
2018-09-09T01:40:54.355Z,13.50
2018-09-09T01:43:22.856Z,13.50
2018-09-09T01:45:51.271Z,13.50
2018-09-09T01:48:19.724Z,13.50
2018-09-09T01:50:48.136Z,13.50
2018-09-09T01:53:16.567Z,13.40
2018-09-09T01:55:45.097Z,13.40
2018-09-09T01:58:13.539Z,13.50
2018-09-09T02:00:42.029Z,13.50
2018-09-09T02:03:10.463Z,13.50
2018-09-09T02:05:38.905Z,13.50
2018-09-09T02:08:07.324Z,13.50
2018-09-09T02:10:35.746Z,13.40
2018-09-09T02:13:04.294Z,13.40
2018-09-09T02:15:32.699Z,13.50
2018-09-09T02:18:01.201Z,13.50
2018-09-09T02:20:30.023Z,13.40
2018-09-09T02:22:58.449Z,13.40
2018-09-09T02:25:26.904Z,13.40
2018-09-09T02:27:55.346Z,13.40
2018-09-09T02:30:23.807Z,13.40
2018-09-09T02:32:52.240Z,13.50
2018-09-09T02:35:20.660Z,13.50
2018-09-09T02:37:49.080Z,13.50
2018-09-09T02:40:17.512Z,13.40
2018-09-09T02:42:45.939Z,13.30
2018-09-09T02:45:14.374Z,13.30
2018-09-09T02:47:42.783Z,13.30
2018-09-09T02:50:11.217Z,13.30
2018-09-09T02:52:40.464Z,13.30
2018-09-09T02:55:08.901Z,13.20
2018-09-09T02:57:37.340Z,13.20
2018-09-09T03:00:06.080Z,13.10
2018-09-09T03:02:34.486Z,13.10
2018-09-09T03:05:02.918Z,13.10
2018-09-09T03:07:31.336Z,13.10
2018-09-09T03:09:59.797Z,13.00
2018-09-09T03:12:28.208Z,12.90
2018-09-09T03:14:56.695Z,12.90
2018-09-09T03:17:25.162Z,13.00
2018-09-09T03:19:53.683Z,13.00
2018-09-09T03:22:22.140Z,12.90
2018-09-09T03:24:50.619Z,12.80
2018-09-09T03:27:19.103Z,12.90
2018-09-09T03:29:47.627Z,12.80
2018-09-09T03:32:16.139Z,12.70
2018-09-09T03:34:44.642Z,12.70
2018-09-09T03:37:13.059Z,12.70
2018-09-09T03:39:41.500Z,12.70
2018-09-09T03:42:09.921Z,12.70
2018-09-09T03:44:38.364Z,12.70
2018-09-09T03:47:06.775Z,12.70
2018-09-09T03:49:35.259Z,12.70
2018-09-09T03:52:03.654Z,12.70
2018-09-09T03:54:32.087Z,12.70
2018-09-09T03:57:00.553Z,12.70
2018-09-09T03:59:29.004Z,12.70
2018-09-09T04:01:57.460Z,12.70
2018-09-09T04:04:25.864Z,12.60
2018-09-09T04:06:54.315Z,12.60
2018-09-09T04:09:22.705Z,12.60
2018-09-09T04:11:51.156Z,12.60
2018-09-09T04:14:19.598Z,12.60
2018-09-09T04:16:48.046Z,12.60
2018-09-09T04:19:16.451Z,12.60
2018-09-09T04:21:49.946Z,12.60
2018-09-09T04:24:18.682Z,12.60
2018-09-09T04:26:47.390Z,12.70
2018-09-09T04:29:16.030Z,12.70
2018-09-09T04:31:44.504Z,12.70
2018-09-09T04:34:13.226Z,12.50
2018-09-09T04:36:42.244Z,12.50
2018-09-09T04:39:12.811Z,12.40
2018-09-09T04:41:41.563Z,12.50
2018-09-09T04:44:11.247Z,12.50
2018-09-09T04:46:39.751Z,12.40
2018-09-09T04:49:09.131Z,12.40
2018-09-09T04:51:37.739Z,12.40
2018-09-09T04:54:06.399Z,12.40
2018-09-09T04:56:34.906Z,12.50
2018-09-09T04:59:03.412Z,12.50
2018-09-09T05:01:31.949Z,12.50
2018-09-09T05:04:00.450Z,12.50
2018-09-09T05:06:28.915Z,12.50
2018-09-09T05:08:57.387Z,12.50
2018-09-09T05:11:25.838Z,12.50
2018-09-09T05:13:54.453Z,12.50
2018-09-09T05:16:22.930Z,12.70
2018-09-09T05:18:51.407Z,12.80
2018-09-09T05:21:19.858Z,12.90
2018-09-09T05:23:48.320Z,13.00
2018-09-09T05:26:16.786Z,12.90
2018-09-09T05:28:45.247Z,12.90
2018-09-09T05:31:13.705Z,12.90
2018-09-09T05:33:42.239Z,12.90
2018-09-09T05:36:10.712Z,12.80
2018-09-09T05:38:39.191Z,12.80
2018-09-09T05:41:07.647Z,12.80
2018-09-09T05:43:36.131Z,12.80
2018-09-09T05:46:04.635Z,12.70
2018-09-09T05:48:33.119Z,12.80
2018-09-09T05:51:01.578Z,12.80
2018-09-09T05:53:30.127Z,12.80
2018-09-09T05:55:58.675Z,12.80
2018-09-09T05:58:27.151Z,12.70
2018-09-09T06:00:55.630Z,12.70
2018-09-09T06:03:24.119Z,12.70
2018-09-09T06:05:52.593Z,12.70
2018-09-09T06:08:21.098Z,12.80
2018-09-09T06:10:53.835Z,12.80
2018-09-09T06:13:23.991Z,13.00
2018-09-09T06:15:52.507Z,13.10
2018-09-09T06:18:20.980Z,13.30
2018-09-09T06:20:49.443Z,13.50
2018-09-09T06:23:17.951Z,13.50
2018-09-09T06:25:46.786Z,13.70
2018-09-09T06:28:15.382Z,13.80
2018-09-09T06:30:43.990Z,13.80
2018-09-09T06:33:12.499Z,13.90
2018-09-09T06:35:41.058Z,14.00
2018-09-09T06:38:09.480Z,14.20
2018-09-09T06:40:37.907Z,14.40
2018-09-09T06:43:06.375Z,14.40
2018-09-09T06:45:34.796Z,14.40
2018-09-09T06:48:03.253Z,14.60
2018-09-09T06:50:31.686Z,14.70
2018-09-09T06:53:00.114Z,14.60
2018-09-09T06:55:28.688Z,14.50
2018-09-09T06:57:57.063Z,14.50
2018-09-09T07:00:25.503Z,14.60
2018-09-09T07:02:53.906Z,14.50
2018-09-09T07:05:22.334Z,14.60
2018-09-09T07:07:50.755Z,14.60
2018-09-09T07:10:19.259Z,14.50
2018-09-09T07:12:47.647Z,14.60
2018-09-09T07:15:16.114Z,14.70
2018-09-09T07:17:44.523Z,14.80
2018-09-09T07:20:12.947Z,14.70
2018-09-09T07:22:41.485Z,14.70
2018-09-09T07:25:09.835Z,15.00
2018-09-09T07:27:38.300Z,15.10
2018-09-09T07:30:06.779Z,15.10
2018-09-09T07:32:35.225Z,15.30
2018-09-09T07:35:03.789Z,15.50
2018-09-09T07:37:32.365Z,15.60
2018-09-09T07:40:00.855Z,15.70
2018-09-09T07:42:29.411Z,16.00
2018-09-09T07:44:57.939Z,16.20
2018-09-09T07:47:26.451Z,16.10
2018-09-09T07:49:54.943Z,16.20
2018-09-09T07:52:23.435Z,16.30
2018-09-09T07:54:51.909Z,16.50
2018-09-09T07:57:20.397Z,16.60
2018-09-09T07:59:49.484Z,16.90
2018-09-09T08:02:17.958Z,16.70
2018-09-09T08:04:46.431Z,17.00
2018-09-09T08:07:14.975Z,17.10
2018-09-09T08:12:26.143Z,17.00
2018-09-09T08:14:54.620Z,17.00
2018-09-09T08:17:23.100Z,17.10
2018-09-09T08:19:51.582Z,17.00
2018-09-09T08:22:20.080Z,17.20
2018-09-09T08:24:48.583Z,17.50
2018-09-09T08:27:17.088Z,17.60
2018-09-09T08:29:45.549Z,17.80
2018-09-09T08:32:14.069Z,18.00
2018-09-09T08:34:42.543Z,18.10
2018-09-09T08:37:11.085Z,18.30
2018-09-09T08:39:39.578Z,18.50
2018-09-09T08:42:08.056Z,18.60
2018-09-09T08:44:36.538Z,18.40
2018-09-09T08:47:05.178Z,18.70
2018-09-09T08:49:33.651Z,19.10
2018-09-09T08:52:02.302Z,19.10
2018-09-09T08:54:30.705Z,19.10
2018-09-09T08:56:59.193Z,19.30
2018-09-09T08:59:27.691Z,19.50
2018-09-09T09:01:56.173Z,19.40
2018-09-09T09:04:24.639Z,19.70
2018-09-09T09:06:53.134Z,19.90
2018-09-09T09:09:21.631Z,20.10
2018-09-09T09:11:50.188Z,20.20
2018-09-09T09:14:18.683Z,20.40
2018-09-09T09:16:47.184Z,20.50
2018-09-09T09:19:15.661Z,20.20
2018-09-09T09:21:44.171Z,20.30
2018-09-09T09:24:12.723Z,20.80
2018-09-09T09:26:41.180Z,20.90
2018-09-09T09:29:09.688Z,20.80
2018-09-09T09:31:38.160Z,21.00
2018-09-09T09:34:06.654Z,21.50
2018-09-09T09:36:35.143Z,21.90
2018-09-09T09:39:04.767Z,21.70
2018-09-09T09:41:33.250Z,21.90
2018-09-09T09:44:01.787Z,21.80
2018-09-09T09:46:30.247Z,22.10
2018-09-09T09:48:58.755Z,22.00
2018-09-09T09:51:27.227Z,21.80
2018-09-09T09:53:55.741Z,21.80
2018-09-09T09:56:24.255Z,22.10
2018-09-09T09:58:52.763Z,22.20
2018-09-09T10:01:21.342Z,22.20
2018-09-09T10:03:49.827Z,22.40
2018-09-09T10:06:18.330Z,22.20
2018-09-09T10:08:46.859Z,22.40
2018-09-09T10:11:15.403Z,22.60
2018-09-09T10:13:43.894Z,22.50
2018-09-09T10:16:12.665Z,22.20
2018-09-09T10:18:41.279Z,22.00
2018-09-09T10:21:09.775Z,22.10
2018-09-09T10:23:38.313Z,22.20
2018-09-09T10:26:06.837Z,22.20
2018-09-09T10:28:35.348Z,22.10
2018-09-09T10:31:03.831Z,22.10
2018-09-09T10:33:32.331Z,22.00
2018-09-09T10:36:00.831Z,22.00
2018-09-09T10:38:29.311Z,22.00
2018-09-09T10:40:57.833Z,22.20
2018-09-09T10:43:26.216Z,22.50
2018-09-09T10:45:54.680Z,22.60
2018-09-09T10:48:23.140Z,22.70
2018-09-09T10:50:51.654Z,22.60
2018-09-09T10:53:20.107Z,22.90
2018-09-09T10:55:48.542Z,23.00
2018-09-09T10:58:16.983Z,22.70
2018-09-09T11:00:45.434Z,22.50
2018-09-09T11:03:13.911Z,22.40
2018-09-09T11:05:42.618Z,22.30
2018-09-09T11:08:15.078Z,22.20
2018-09-09T11:10:43.682Z,22.30
2018-09-09T11:13:12.095Z,22.40
2018-09-09T11:15:40.625Z,22.60
2018-09-09T11:18:09.365Z,22.80
2018-09-09T11:20:37.820Z,23.10
2018-09-09T11:23:06.279Z,23.10
2018-09-09T11:25:34.714Z,23.20
2018-09-09T11:28:03.161Z,23.30
2018-09-09T11:30:31.606Z,23.40
2018-09-09T11:33:00.177Z,23.50
2018-09-09T11:35:28.826Z,23.50
2018-09-09T11:37:57.474Z,23.40
2018-09-09T11:40:26.466Z,23.40
2018-09-09T11:42:54.947Z,23.40
2018-09-09T11:45:23.416Z,23.60
2018-09-09T11:47:51.917Z,23.90
2018-09-09T11:50:20.441Z,23.80
2018-09-09T11:52:49.849Z,24.10
2018-09-09T11:55:18.367Z,24.20
2018-09-09T11:57:46.843Z,24.10
2018-09-09T12:00:15.256Z,23.90
2018-09-09T12:02:43.723Z,24.20
2018-09-09T12:05:12.173Z,24.30
2018-09-09T12:07:40.602Z,24.30
2018-09-09T12:10:09.035Z,24.40
2018-09-09T12:12:37.522Z,24.50
2018-09-09T12:15:05.968Z,24.40
2018-09-09T12:17:34.499Z,24.50
2018-09-09T12:20:02.911Z,24.50
2018-09-09T12:22:31.336Z,24.70
2018-09-09T12:24:59.752Z,24.50
2018-09-09T12:27:28.171Z,24.50
2018-09-09T12:29:56.583Z,24.50
2018-09-09T12:32:25.333Z,24.70
2018-09-09T12:34:53.632Z,24.70
2018-09-09T12:37:22.111Z,25.00
2018-09-09T12:39:50.575Z,25.00
2018-09-09T12:42:19.009Z,24.60
2018-09-09T12:44:52.754Z,24.70
2018-09-09T12:47:26.970Z,25.00
2018-09-09T12:49:55.404Z,24.90
2018-09-09T12:52:23.853Z,25.00
2018-09-09T12:54:52.265Z,24.90
2018-09-09T12:57:20.703Z,25.10
2018-09-09T12:59:49.160Z,25.10
2018-09-09T13:02:17.587Z,25.00
2018-09-09T13:04:46.043Z,25.20
2018-09-09T13:07:14.497Z,25.30
2018-09-09T13:09:42.931Z,25.00
2018-09-09T13:12:11.355Z,25.00
2018-09-09T13:14:39.783Z,25.10
2018-09-09T13:17:08.227Z,25.30
2018-09-09T13:19:36.639Z,25.10
2018-09-09T13:22:05.055Z,25.10
2018-09-09T13:24:33.475Z,25.30
2018-09-09T13:27:01.967Z,25.40
2018-09-09T13:29:30.373Z,25.50
2018-09-09T13:31:58.802Z,25.30
2018-09-09T13:34:27.247Z,25.30
2018-09-09T13:36:55.755Z,25.50
2018-09-09T13:39:24.251Z,25.30
2018-09-09T13:41:52.992Z,25.40
2018-09-09T13:44:21.472Z,25.30
2018-09-09T13:46:50.063Z,25.30
2018-09-09T13:49:18.772Z,25.10
2018-09-09T13:51:47.312Z,25.20
2018-09-09T13:54:15.995Z,25.20
2018-09-09T13:56:44.513Z,25.30
2018-09-09T13:59:12.997Z,25.50
2018-09-09T14:01:41.476Z,25.60
2018-09-09T14:04:09.976Z,25.50
2018-09-09T14:06:38.437Z,25.40
2018-09-09T14:09:08.527Z,25.60
2018-09-09T14:11:37.115Z,25.60
2018-09-09T14:14:05.724Z,25.60
2018-09-09T14:16:34.278Z,25.50
2018-09-09T14:19:02.752Z,25.60
2018-09-09T14:21:31.305Z,25.60
2018-09-09T14:23:59.788Z,25.60
2018-09-09T14:26:28.255Z,25.60
2018-09-09T14:28:56.824Z,25.70
2018-09-09T14:31:25.335Z,25.80
2018-09-09T14:33:53.838Z,25.80
2018-09-09T14:36:22.397Z,25.70
2018-09-09T14:38:50.901Z,25.70
2018-09-09T14:41:19.335Z,25.90
2018-09-09T14:43:47.867Z,25.70
2018-09-09T14:46:16.276Z,25.80
2018-09-09T14:48:44.694Z,25.90
2018-09-09T14:51:13.120Z,25.80
2018-09-09T14:53:41.539Z,25.80
2018-09-09T14:56:09.998Z,25.50
2018-09-09T14:58:38.469Z,25.50
2018-09-09T15:01:06.924Z,25.30
2018-09-09T15:03:35.393Z,25.40
2018-09-09T15:06:03.823Z,25.40
2018-09-09T15:08:32.279Z,25.30
2018-09-09T15:11:00.739Z,25.20
2018-09-09T15:13:29.179Z,25.30
2018-09-09T15:15:57.663Z,25.20
2018-09-09T15:18:26.124Z,25.10
2018-09-09T15:20:54.527Z,25.20
2018-09-09T15:23:22.974Z,25.20
2018-09-09T15:25:51.369Z,25.20
2018-09-09T15:28:19.807Z,25.10
2018-09-09T15:30:48.262Z,25.20
2018-09-09T15:33:16.666Z,25.20
2018-09-09T15:35:45.096Z,25.20
2018-09-09T15:38:13.617Z,25.20
2018-09-09T15:40:42.069Z,25.10
2018-09-09T15:43:10.515Z,25.10
2018-09-09T15:45:39.020Z,25.10
2018-09-09T15:48:07.450Z,24.90
2018-09-09T15:50:35.935Z,24.80
2018-09-09T15:53:04.348Z,24.70
2018-09-09T15:55:32.811Z,24.60
2018-09-09T15:58:01.228Z,24.60
2018-09-09T16:00:29.780Z,24.60
2018-09-09T16:02:58.145Z,24.60
2018-09-09T16:05:26.611Z,24.50
2018-09-09T16:07:55.077Z,24.40
2018-09-09T16:10:23.541Z,24.50
2018-09-09T16:12:52.034Z,24.40
2018-09-09T16:15:20.607Z,24.50
2018-09-09T16:17:49.023Z,24.40
2018-09-09T16:20:17.467Z,24.40
2018-09-09T16:22:45.902Z,24.40
2018-09-09T16:25:14.380Z,24.30
2018-09-09T16:27:42.839Z,24.30
2018-09-09T16:30:11.738Z,24.40
2018-09-09T16:32:40.151Z,24.30
2018-09-09T16:35:08.599Z,24.30
2018-09-09T16:37:37.166Z,24.20
2018-09-09T16:40:05.752Z,24.20
2018-09-09T16:42:34.287Z,24.10
2018-09-09T16:45:02.836Z,24.10
2018-09-09T16:47:31.298Z,24.10
2018-09-09T16:49:59.811Z,24.20
2018-09-09T16:52:28.272Z,24.10
2018-09-09T16:54:56.761Z,24.10
2018-09-09T16:57:25.245Z,24.10
2018-09-09T16:59:53.781Z,24.00
2018-09-09T17:02:22.279Z,23.90
2018-09-09T17:04:50.733Z,23.90
2018-09-09T17:07:19.219Z,23.80
2018-09-09T17:09:47.692Z,23.70
2018-09-09T17:12:16.167Z,23.60
2018-09-09T17:14:44.696Z,23.60
2018-09-09T17:17:13.165Z,23.50
2018-09-09T17:19:41.678Z,23.40
2018-09-09T17:22:10.189Z,23.30
2018-09-09T17:24:38.640Z,23.30
2018-09-09T17:27:07.135Z,23.20
2018-09-09T17:29:35.607Z,23.10
2018-09-09T17:32:04.153Z,23.10
2018-09-09T17:34:32.636Z,23.00
2018-09-09T17:37:01.103Z,22.90
2018-09-09T17:39:29.524Z,22.90
2018-09-09T17:41:57.959Z,22.80
2018-09-09T17:44:26.364Z,22.70
2018-09-09T17:46:54.808Z,22.60
2018-09-09T17:49:23.216Z,22.60
2018-09-09T17:51:51.639Z,22.50
2018-09-09T17:54:20.044Z,22.40
2018-09-09T17:56:48.513Z,22.30
2018-09-09T17:59:16.953Z,22.30
2018-09-09T18:01:45.411Z,22.20
2018-09-09T18:04:13.831Z,22.20
2018-09-09T18:06:42.249Z,22.10
2018-09-09T18:09:11.027Z,22.00
2018-09-09T18:11:39.720Z,21.90
2018-09-09T18:14:08.323Z,21.70
2018-09-09T18:16:36.736Z,21.70
2018-09-09T18:19:05.240Z,21.50
2018-09-09T18:21:33.679Z,21.50
2018-09-09T18:24:02.189Z,21.40
2018-09-09T18:26:30.648Z,21.30
2018-09-09T18:28:59.148Z,21.30
2018-09-09T18:31:27.575Z,21.20
2018-09-09T18:33:56.035Z,21.10
2018-09-09T18:36:24.497Z,21.10
2018-09-09T18:38:53.129Z,21.10
2018-09-09T18:41:21.452Z,21.10
2018-09-09T18:43:49.963Z,21.10
2018-09-09T18:46:18.416Z,21.00
2018-09-09T18:48:46.889Z,20.80
2018-09-09T18:51:15.335Z,20.70
2018-09-09T18:53:43.815Z,20.70
2018-09-09T18:56:12.254Z,20.70
2018-09-09T18:58:40.732Z,20.70
2018-09-09T19:01:09.161Z,20.60
2018-09-09T19:03:37.599Z,20.50
2018-09-09T19:06:06.066Z,20.40
2018-09-09T19:08:34.538Z,20.20
2018-09-09T19:11:02.962Z,20.10
2018-09-09T19:13:31.388Z,20.10
2018-09-09T19:15:59.852Z,20.00
2018-09-09T19:18:28.316Z,20.00
2018-09-09T19:20:56.738Z,20.10
2018-09-09T19:23:25.194Z,20.10
2018-09-09T19:25:53.630Z,20.00
2018-09-09T19:28:22.128Z,20.10
2018-09-09T19:30:50.703Z,20.00
2018-09-09T19:33:19.167Z,20.00
2018-09-09T19:35:47.578Z,20.10
2018-09-09T19:38:16.062Z,20.10
2018-09-09T19:40:44.544Z,20.00
2018-09-09T19:43:13.011Z,19.80
2018-09-09T19:45:41.528Z,19.70
2018-09-09T19:48:09.982Z,19.40
2018-09-09T19:50:38.474Z,19.30
2018-09-09T19:53:07.011Z,19.40
2018-09-09T19:55:35.496Z,19.30
2018-09-09T19:58:03.990Z,19.30
2018-09-09T20:00:32.506Z,19.20
2018-09-09T20:03:00.980Z,19.20
2018-09-09T20:05:29.428Z,19.20
2018-09-09T20:07:57.935Z,19.20
2018-09-09T20:10:26.415Z,19.20
2018-09-09T20:12:54.827Z,19.20
2018-09-09T20:15:23.282Z,19.10
2018-09-09T20:17:51.724Z,19.10
2018-09-09T20:20:20.147Z,19.10
2018-09-09T20:22:48.612Z,19.20
2018-09-09T20:25:17.188Z,19.20
2018-09-09T20:27:45.609Z,19.10
2018-09-09T20:30:14.072Z,19.00
2018-09-09T20:32:42.598Z,18.90
2018-09-09T20:35:10.978Z,18.80
2018-09-09T20:37:39.475Z,18.70
2018-09-09T20:40:07.988Z,18.60
2018-09-09T20:42:36.476Z,18.60
2018-09-09T20:45:05.319Z,18.50
2018-09-09T20:47:33.780Z,18.50
2018-09-09T20:50:02.263Z,18.40
2018-09-09T20:52:30.748Z,18.30
2018-09-09T20:54:59.300Z,18.20
2018-09-09T20:57:27.767Z,18.10
2018-09-09T20:59:56.287Z,18.00
2018-09-09T21:02:24.804Z,18.10
2018-09-09T21:04:53.344Z,18.10
2018-09-09T21:07:21.798Z,18.10
2018-09-09T21:09:50.270Z,18.00
2018-09-09T21:12:18.745Z,18.00
2018-09-09T21:14:47.193Z,17.90
2018-09-09T21:17:15.643Z,17.90
2018-09-09T21:19:44.105Z,17.80
2018-09-09T21:22:12.617Z,17.80
2018-09-09T21:24:41.314Z,17.70
2018-09-09T21:27:09.790Z,17.70
2018-09-09T21:29:38.344Z,17.60
2018-09-09T21:32:06.936Z,17.60
2018-09-09T21:34:35.449Z,17.50
2018-09-09T21:37:03.978Z,17.50
2018-09-09T21:39:32.487Z,17.50
2018-09-09T21:42:01.011Z,17.40
2018-09-09T21:44:29.452Z,17.30
2018-09-09T21:46:58.114Z,17.30
2018-09-09T21:49:26.539Z,17.20
2018-09-09T21:51:55.181Z,17.10
2018-09-09T21:54:23.625Z,17.10
2018-09-09T21:56:52.118Z,17.10
2018-09-09T21:59:20.534Z,17.10
2018-09-09T22:02:07.579Z,17.00
2018-09-09T22:04:36.354Z,17.00
2018-09-09T22:07:05.453Z,17.00
2018-09-09T22:09:33.855Z,17.00
2018-09-09T22:12:02.304Z,17.00
2018-09-09T22:14:30.721Z,17.00
2018-09-09T22:16:59.374Z,16.80
2018-09-09T22:19:27.787Z,16.70
2018-09-09T22:21:56.224Z,16.60
2018-09-09T22:24:25.095Z,16.70
2018-09-09T22:26:53.516Z,16.80
2018-09-09T22:29:21.933Z,16.70
2018-09-09T22:31:50.366Z,16.50
2018-09-09T22:34:18.827Z,16.40
2018-09-09T22:36:47.322Z,16.40
2018-09-09T22:39:16.050Z,16.40
2018-09-09T22:41:45.219Z,16.40
2018-09-09T22:44:13.670Z,16.30
2018-09-09T22:46:42.695Z,16.30
2018-09-09T22:49:11.148Z,16.30
2018-09-09T22:51:39.607Z,16.30
2018-09-09T22:54:08.087Z,16.30
2018-09-09T22:56:36.650Z,16.40
2018-09-09T22:59:05.310Z,16.40
2018-09-09T23:01:34.012Z,16.10
2018-09-09T23:04:02.569Z,15.80
2018-09-09T23:06:30.995Z,15.70
2018-09-09T23:08:59.466Z,15.70
2018-09-09T23:11:27.922Z,15.70
2018-09-09T23:13:56.368Z,15.70
2018-09-09T23:16:24.883Z,15.60
2018-09-09T23:18:53.437Z,15.60
2018-09-09T23:21:21.890Z,15.70
2018-09-09T23:23:50.416Z,15.70
2018-09-09T23:26:19.115Z,15.70
2018-09-09T23:28:47.595Z,15.80
2018-09-09T23:31:16.122Z,15.80
2018-09-09T23:33:44.584Z,15.80
2018-09-09T23:36:13.204Z,15.90
2018-09-09T23:38:41.641Z,15.80
2018-09-09T23:41:10.150Z,15.80
2018-09-09T23:43:38.585Z,15.70
2018-09-09T23:46:07.091Z,15.80
2018-09-09T23:48:35.566Z,15.80
2018-09-09T23:51:04.023Z,15.80
2018-09-09T23:53:32.462Z,15.80
2018-09-09T23:56:00.891Z,15.70
2018-09-09T23:58:29.322Z,15.80
